sensor_id;sensor_type;location;lat;lon;timestamp;pressure;altitude;pressure_sealevel;temperature;humidity
64610;BME280;51019;46.090;6.350;2023-03-19T00:00:38;96512.66;;;10.21;72.94
64610;BME280;51019;46.090;6.350;2023-03-19T00:03:05;96517.91;;;10.21;73.58
64610;BME280;51019;46.090;6.350;2023-03-19T00:05:33;96513.50;;;10.11;73.37
64610;BME280;51019;46.090;6.350;2023-03-19T00:08:01;96518.19;;;9.98;75.69
64610;BME280;51019;46.090;6.350;2023-03-19T00:10:28;96520.81;;;9.98;74.60
64610;BME280;51019;46.090;6.350;2023-03-19T00:12:56;96514.19;;;10.04;75.35
64610;BME280;51019;46.090;6.350;2023-03-19T00:15:25;96516.94;;;9.83;76.67
64610;BME280;51019;46.090;6.350;2023-03-19T00:17:54;96518.75;;;9.92;76.50
64610;BME280;51019;46.090;6.350;2023-03-19T00:20:23;96515.69;;;9.97;76.00
64610;BME280;51019;46.090;6.350;2023-03-19T00:22:52;96519.72;;;9.91;75.80
64610;BME280;51019;46.090;6.350;2023-03-19T00:25:20;96522.72;;;10.06;73.31
64610;BME280;51019;46.090;6.350;2023-03-19T00:27:47;96514.19;;;9.94;76.15
64610;BME280;51019;46.090;6.350;2023-03-19T00:30:15;96524.25;;;9.79;77.75
64610;BME280;51019;46.090;6.350;2023-03-19T00:32:44;96514.88;;;9.77;76.63
64610;BME280;51019;46.090;6.350;2023-03-19T00:35:12;96526.72;;;9.52;81.02
64610;BME280;51019;46.090;6.350;2023-03-19T00:37:40;96535.25;;;9.54;80.94
64610;BME280;51019;46.090;6.350;2023-03-19T00:40:09;96540.47;;;9.35;82.10
64610;BME280;51019;46.090;6.350;2023-03-19T00:42:36;96527.81;;;9.50;82.20
64610;BME280;51019;46.090;6.350;2023-03-19T00:45:05;96528.22;;;8.95;85.10
64610;BME280;51019;46.090;6.350;2023-03-19T00:47:32;96531.59;;;9.17;84.02
64610;BME280;51019;46.090;6.350;2023-03-19T00:50:02;96535.06;;;9.27;80.17
64610;BME280;51019;46.090;6.350;2023-03-19T00:52:31;96538.94;;;9.32;80.54
64610;BME280;51019;46.090;6.350;2023-03-19T00:54:59;96539.41;;;9.07;81.48
64610;BME280;51019;46.090;6.350;2023-03-19T00:57:26;96536.00;;;9.16;79.93
64610;BME280;51019;46.090;6.350;2023-03-19T00:59:53;96531.47;;;9.18;79.13
64610;BME280;51019;46.090;6.350;2023-03-19T01:02:21;96527.06;;;9.19;79.51
64610;BME280;51019;46.090;6.350;2023-03-19T01:04:48;96542.56;;;9.01;81.71
64610;BME280;51019;46.090;6.350;2023-03-19T01:07:17;96543.66;;;8.98;82.07
64610;BME280;51019;46.090;6.350;2023-03-19T01:09:45;96533.47;;;8.95;81.30
64610;BME280;51019;46.090;6.350;2023-03-19T01:12:12;96527.97;;;8.98;80.98
64610;BME280;51019;46.090;6.350;2023-03-19T01:14:40;96524.66;;;8.96;80.51
64610;BME280;51019;46.090;6.350;2023-03-19T01:17:07;96530.50;;;9.19;78.93
64610;BME280;51019;46.090;6.350;2023-03-19T01:19:35;96532.41;;;9.17;79.70
64610;BME280;51019;46.090;6.350;2023-03-19T01:22:02;96533.50;;;9.15;80.41
64610;BME280;51019;46.090;6.350;2023-03-19T01:24:31;96529.88;;;8.96;82.49
64610;BME280;51019;46.090;6.350;2023-03-19T01:26:59;96545.16;;;8.91;84.66
64610;BME280;51019;46.090;6.350;2023-03-19T01:29:26;96546.25;;;8.89;83.80
64610;BME280;51019;46.090;6.350;2023-03-19T01:31:53;96542.78;;;8.88;83.70
64610;BME280;51019;46.090;6.350;2023-03-19T01:34:20;96532.84;;;8.82;84.55
64610;BME280;51019;46.090;6.350;2023-03-19T01:36:48;96521.84;;;8.79;84.59
64610;BME280;51019;46.090;6.350;2023-03-19T01:39:16;96527.59;;;8.72;86.31
64610;BME280;51019;46.090;6.350;2023-03-19T01:41:45;96527.19;;;8.67;85.69
64610;BME280;51019;46.090;6.350;2023-03-19T01:44:23;96533.41;;;8.76;84.42
64610;BME280;51019;46.090;6.350;2023-03-19T01:46:51;96527.72;;;8.71;84.71
64610;BME280;51019;46.090;6.350;2023-03-19T01:49:20;96520.91;;;8.80;83.66
64610;BME280;51019;46.090;6.350;2023-03-19T01:51:48;96526.38;;;8.77;84.85
64610;BME280;51019;46.090;6.350;2023-03-19T01:54:19;96515.09;;;8.76;84.19
64610;BME280;51019;46.090;6.350;2023-03-19T01:56:50;96521.63;;;8.91;82.81
64610;BME280;51019;46.090;6.350;2023-03-19T01:59:22;96530.13;;;8.84;83.24
64610;BME280;51019;46.090;6.350;2023-03-19T02:01:55;96534.34;;;8.75;83.77
64610;BME280;51019;46.090;6.350;2023-03-19T02:04:23;96520.22;;;8.87;82.29
64610;BME280;51019;46.090;6.350;2023-03-19T02:06:52;96525.19;;;8.90;81.79
64610;BME280;51019;46.090;6.350;2023-03-19T02:09:21;96521.34;;;8.94;81.15
64610;BME280;51019;46.090;6.350;2023-03-19T02:11:51;96508.16;;;9.05;80.33
64610;BME280;51019;46.090;6.350;2023-03-19T02:14:19;96514.78;;;9.00;83.04
64610;BME280;51019;46.090;6.350;2023-03-19T02:16:47;96506.84;;;8.81;86.35
64610;BME280;51019;46.090;6.350;2023-03-19T02:19:17;96523.31;;;8.71;87.82
64610;BME280;51019;46.090;6.350;2023-03-19T02:21:48;96482.16;;;8.54;89.10
64610;BME280;51019;46.090;6.350;2023-03-19T02:24:19;96498.84;;;8.72;87.24
64610;BME280;51019;46.090;6.350;2023-03-19T02:26:51;96509.47;;;8.81;87.25
64610;BME280;51019;46.090;6.350;2023-03-19T02:29:18;96514.06;;;8.98;84.06
64610;BME280;51019;46.090;6.350;2023-03-19T02:31:46;96496.88;;;8.95;83.43
64610;BME280;51019;46.090;6.350;2023-03-19T02:34:35;96504.31;;;9.00;83.01
64610;BME280;51019;46.090;6.350;2023-03-19T02:37:07;96504.00;;;8.93;83.89
64610;BME280;51019;46.090;6.350;2023-03-19T02:39:47;96516.88;;;8.76;86.57
64610;BME280;51019;46.090;6.350;2023-03-19T02:42:18;96499.19;;;8.58;88.97
64610;BME280;51019;46.090;6.350;2023-03-19T02:44:47;96494.16;;;8.36;89.31
64610;BME280;51019;46.090;6.350;2023-03-19T02:47:14;96509.34;;;8.31;91.69
64610;BME280;51019;46.090;6.350;2023-03-19T02:49:41;96507.19;;;8.15;92.93
64610;BME280;51019;46.090;6.350;2023-03-19T02:52:09;96503.56;;;8.07;94.55
64610;BME280;51019;46.090;6.350;2023-03-19T02:54:37;96506.19;;;8.07;94.48
64610;BME280;51019;46.090;6.350;2023-03-19T02:57:04;96509.31;;;8.21;92.11
64610;BME280;51019;46.090;6.350;2023-03-19T02:59:34;96519.59;;;8.34;92.57
64610;BME280;51019;46.090;6.350;2023-03-19T03:02:03;96519.06;;;8.40;93.09
64610;BME280;51019;46.090;6.350;2023-03-19T03:04:32;96504.25;;;8.29;93.75
64610;BME280;51019;46.090;6.350;2023-03-19T03:07:01;96515.66;;;8.28;94.96
64610;BME280;51019;46.090;6.350;2023-03-19T03:09:29;96519.06;;;8.40;95.63
64610;BME280;51019;46.090;6.350;2023-03-19T03:11:56;96520.69;;;8.20;98.07
64610;BME280;51019;46.090;6.350;2023-03-19T03:14:23;96521.31;;;8.13;98.30
64610;BME280;51019;46.090;6.350;2023-03-19T03:16:54;96519.53;;;7.92;97.85
64610;BME280;51019;46.090;6.350;2023-03-19T03:19:21;96526.34;;;8.05;95.60
64610;BME280;51019;46.090;6.350;2023-03-19T03:21:49;96532.88;;;8.10;95.73
64610;BME280;51019;46.090;6.350;2023-03-19T03:24:16;96523.63;;;8.06;96.24
64610;BME280;51019;46.090;6.350;2023-03-19T03:26:44;96526.09;;;8.28;92.03
64610;BME280;51019;46.090;6.350;2023-03-19T03:29:11;96528.25;;;8.34;92.30
64610;BME280;51019;46.090;6.350;2023-03-19T03:31:38;96534.84;;;8.38;92.47
64610;BME280;51019;46.090;6.350;2023-03-19T03:34:07;96532.47;;;8.56;89.29
64610;BME280;51019;46.090;6.350;2023-03-19T03:36:35;96528.84;;;8.48;91.29
64610;BME280;51019;46.090;6.350;2023-03-19T03:39:03;96529.94;;;8.45;91.58
64610;BME280;51019;46.090;6.350;2023-03-19T03:41:30;96468.56;;;8.09;91.76
64610;BME280;51019;46.090;6.350;2023-03-19T03:43:58;96526.63;;;8.43;92.16
64610;BME280;51019;46.090;6.350;2023-03-19T03:46:25;96527.31;;;8.24;94.35
64610;BME280;51019;46.090;6.350;2023-03-19T03:48:52;96532.94;;;7.99;96.96
64610;BME280;51019;46.090;6.350;2023-03-19T03:51:22;96531.41;;;7.96;97.95
64610;BME280;51019;46.090;6.350;2023-03-19T03:53:49;96533.47;;;8.02;98.29
64610;BME280;51019;46.090;6.350;2023-03-19T03:56:16;96536.84;;;8.14;97.62
64610;BME280;51019;46.090;6.350;2023-03-19T03:58:45;96447.72;;;7.56;97.46
64610;BME280;51019;46.090;6.350;2023-03-19T04:01:14;96543.38;;;7.99;98.74
64610;BME280;51019;46.090;6.350;2023-03-19T04:03:41;96538.63;;;7.93;100.00
64610;BME280;51019;46.090;6.350;2023-03-19T04:06:12;96545.84;;;8.00;98.66
64610;BME280;51019;46.090;6.350;2023-03-19T04:08:42;96545.75;;;7.91;99.29
64610;BME280;51019;46.090;6.350;2023-03-19T04:11:10;96548.06;;;7.84;100.00
64610;BME280;51019;46.090;6.350;2023-03-19T04:13:37;96546.94;;;7.66;100.00
64610;BME280;51019;46.090;6.350;2023-03-19T04:16:07;96556.63;;;7.75;100.00
64610;BME280;51019;46.090;6.350;2023-03-19T04:18:35;96550.06;;;7.81;99.91
64610;BME280;51019;46.090;6.350;2023-03-19T04:21:04;96552.28;;;8.17;93.05
64610;BME280;51019;46.090;6.350;2023-03-19T04:23:31;96555.13;;;8.14;95.65
64610;BME280;51019;46.090;6.350;2023-03-19T04:26:02;96558.19;;;8.19;94.39
64610;BME280;51019;46.090;6.350;2023-03-19T04:28:31;96552.53;;;8.14;94.86
64610;BME280;51019;46.090;6.350;2023-03-19T04:30:59;96550.13;;;8.22;96.54
64610;BME280;51019;46.090;6.350;2023-03-19T04:33:27;96537.06;;;8.22;95.00
64610;BME280;51019;46.090;6.350;2023-03-19T04:35:55;96554.00;;;8.28;95.67
64610;BME280;51019;46.090;6.350;2023-03-19T04:38:22;96553.22;;;8.16;94.25
64610;BME280;51019;46.090;6.350;2023-03-19T04:40:52;96536.72;;;7.95;95.60
64610;BME280;51019;46.090;6.350;2023-03-19T04:43:22;96535.06;;;8.15;96.31
64610;BME280;51019;46.090;6.350;2023-03-19T04:45:49;96557.88;;;8.13;97.08
64610;BME280;51019;46.090;6.350;2023-03-19T04:48:16;96560.81;;;8.19;96.89
64610;BME280;51019;46.090;6.350;2023-03-19T04:50:44;96565.25;;;8.08;98.08
64610;BME280;51019;46.090;6.350;2023-03-19T04:53:12;96564.50;;;7.96;98.92
64610;BME280;51019;46.090;6.350;2023-03-19T04:55:39;96572.72;;;8.12;98.21
64610;BME280;51019;46.090;6.350;2023-03-19T04:58:07;96563.03;;;8.03;100.00
64610;BME280;51019;46.090;6.350;2023-03-19T05:00:37;96576.50;;;7.87;100.00
64610;BME280;51019;46.090;6.350;2023-03-19T05:03:04;96574.03;;;7.86;100.00
64610;BME280;51019;46.090;6.350;2023-03-19T05:05:31;96576.69;;;7.75;100.00
64610;BME280;51019;46.090;6.350;2023-03-19T05:07:59;96549.69;;;7.64;100.00
64610;BME280;51019;46.090;6.350;2023-03-19T05:10:26;96576.59;;;7.65;100.00
64610;BME280;51019;46.090;6.350;2023-03-19T05:12:53;96577.13;;;7.80;100.00
64610;BME280;51019;46.090;6.350;2023-03-19T05:15:21;96582.16;;;7.60;100.00
64610;BME280;51019;46.090;6.350;2023-03-19T05:17:52;96574.69;;;7.67;100.00
64610;BME280;51019;46.090;6.350;2023-03-19T05:20:19;96566.63;;;7.59;100.00
64610;BME280;51019;46.090;6.350;2023-03-19T05:22:48;96584.19;;;7.57;100.00
64610;BME280;51019;46.090;6.350;2023-03-19T05:25:15;96587.03;;;7.65;100.00
64610;BME280;51019;46.090;6.350;2023-03-19T05:27:44;96582.88;;;7.62;100.00
64610;BME280;51019;46.090;6.350;2023-03-19T05:30:11;96584.91;;;7.59;100.00
64610;BME280;51019;46.090;6.350;2023-03-19T05:32:39;96587.34;;;7.72;100.00
64610;BME280;51019;46.090;6.350;2023-03-19T05:35:09;96588.34;;;7.59;100.00
64610;BME280;51019;46.090;6.350;2023-03-19T05:37:36;96584.78;;;7.60;100.00
64610;BME280;51019;46.090;6.350;2023-03-19T05:40:04;96569.53;;;7.45;100.00
64610;BME280;51019;46.090;6.350;2023-03-19T05:42:31;96586.22;;;7.53;100.00
64610;BME280;51019;46.090;6.350;2023-03-19T05:44:58;96587.41;;;7.49;100.00
64610;BME280;51019;46.090;6.350;2023-03-19T05:47:26;96578.13;;;7.56;100.00
64610;BME280;51019;46.090;6.350;2023-03-19T05:49:54;96588.16;;;7.40;100.00
64610;BME280;51019;46.090;6.350;2023-03-19T05:52:24;96588.03;;;7.42;100.00
64610;BME280;51019;46.090;6.350;2023-03-19T05:54:52;96586.50;;;7.39;100.00
64610;BME280;51019;46.090;6.350;2023-03-19T05:57:19;96576.34;;;7.57;100.00
64610;BME280;51019;46.090;6.350;2023-03-19T05:59:46;96578.78;;;7.38;100.00
64610;BME280;51019;46.090;6.350;2023-03-19T06:02:15;96593.97;;;7.44;100.00
64610;BME280;51019;46.090;6.350;2023-03-19T06:04:42;96597.00;;;7.49;100.00
64610;BME280;51019;46.090;6.350;2023-03-19T06:07:09;96591.69;;;7.50;100.00
64610;BME280;51019;46.090;6.350;2023-03-19T06:09:41;96593.97;;;7.44;100.00
64610;BME280;51019;46.090;6.350;2023-03-19T06:12:09;96593.00;;;7.56;100.00
64610;BME280;51019;46.090;6.350;2023-03-19T06:14:36;96602.47;;;7.46;100.00
64610;BME280;51019;46.090;6.350;2023-03-19T06:17:03;96589.31;;;7.47;100.00
64610;BME280;51019;46.090;6.350;2023-03-19T06:19:31;96606.19;;;7.32;100.00
64610;BME280;51019;46.090;6.350;2023-03-19T06:21:58;96595.28;;;7.27;100.00
64610;BME280;51019;46.090;6.350;2023-03-19T06:24:26;96606.75;;;7.36;100.00
64610;BME280;51019;46.090;6.350;2023-03-19T06:26:56;96618.88;;;7.14;100.00
64610;BME280;51019;46.090;6.350;2023-03-19T06:29:24;96625.25;;;7.33;100.00
64610;BME280;51019;46.090;6.350;2023-03-19T06:31:51;96616.13;;;7.38;100.00
64610;BME280;51019;46.090;6.350;2023-03-19T06:34:18;96610.91;;;7.38;100.00
64610;BME280;51019;46.090;6.350;2023-03-19T06:36:46;96620.84;;;7.55;100.00
64610;BME280;51019;46.090;6.350;2023-03-19T06:39:14;96618.72;;;7.49;100.00
64610;BME280;51019;46.090;6.350;2023-03-19T06:41:41;96626.72;;;7.69;100.00
64610;BME280;51019;46.090;6.350;2023-03-19T06:44:10;96627.84;;;7.55;100.00
64610;BME280;51019;46.090;6.350;2023-03-19T06:46:38;96624.63;;;7.62;100.00
64610;BME280;51019;46.090;6.350;2023-03-19T06:49:05;96622.34;;;7.69;100.00
64610;BME280;51019;46.090;6.350;2023-03-19T06:51:33;96626.63;;;7.59;100.00
64610;BME280;51019;46.090;6.350;2023-03-19T06:54:00;96625.66;;;7.71;100.00
64610;BME280;51019;46.090;6.350;2023-03-19T06:56:27;96621.09;;;7.52;100.00
64610;BME280;51019;46.090;6.350;2023-03-19T06:58:55;96634.44;;;7.70;100.00
64610;BME280;51019;46.090;6.350;2023-03-19T07:01:24;96609.06;;;7.61;100.00
64610;BME280;51019;46.090;6.350;2023-03-19T07:03:51;96632.69;;;7.91;100.00
64610;BME280;51019;46.090;6.350;2023-03-19T07:06:18;96631.88;;;7.48;100.00
64610;BME280;51019;46.090;6.350;2023-03-19T07:08:46;96640.59;;;7.69;100.00
64610;BME280;51019;46.090;6.350;2023-03-19T07:11:14;96638.63;;;7.93;100.00
64610;BME280;51019;46.090;6.350;2023-03-19T07:13:41;96655.34;;;7.91;100.00
64610;BME280;51019;46.090;6.350;2023-03-19T07:16:09;96651.31;;;7.98;100.00
64610;BME280;51019;46.090;6.350;2023-03-19T07:18:38;96659.25;;;8.08;100.00
64610;BME280;51019;46.090;6.350;2023-03-19T07:21:06;96657.56;;;8.07;100.00
64610;BME280;51019;46.090;6.350;2023-03-19T07:23:33;96657.34;;;8.10;100.00
64610;BME280;51019;46.090;6.350;2023-03-19T07:26:00;96662.44;;;8.11;100.00
64610;BME280;51019;46.090;6.350;2023-03-19T07:28:28;96657.06;;;8.24;100.00
64610;BME280;51019;46.090;6.350;2023-03-19T07:30:56;96658.69;;;8.25;100.00
64610;BME280;51019;46.090;6.350;2023-03-19T07:33:23;96649.44;;;8.00;100.00
64610;BME280;51019;46.090;6.350;2023-03-19T07:35:51;96666.66;;;8.23;100.00
64610;BME280;51019;46.090;6.350;2023-03-19T07:38:18;96656.06;;;8.25;100.00
64610;BME280;51019;46.090;6.350;2023-03-19T07:40:46;96679.13;;;8.52;100.00
64610;BME280;51019;46.090;6.350;2023-03-19T07:43:13;96681.13;;;8.59;100.00
64610;BME280;51019;46.090;6.350;2023-03-19T07:45:41;96677.13;;;8.55;100.00
64610;BME280;51019;46.090;6.350;2023-03-19T07:48:09;96681.28;;;8.47;100.00
64610;BME280;51019;46.090;6.350;2023-03-19T07:50:37;96680.03;;;8.41;100.00
64610;BME280;51019;46.090;6.350;2023-03-19T07:53:06;96614.03;;;8.07;100.00
64610;BME280;51019;46.090;6.350;2023-03-19T07:55:35;96685.59;;;8.68;100.00
64610;BME280;51019;46.090;6.350;2023-03-19T07:58:03;96698.38;;;8.71;100.00
64610;BME280;51019;46.090;6.350;2023-03-19T08:00:30;96696.38;;;8.75;100.00
64610;BME280;51019;46.090;6.350;2023-03-19T08:02:58;96693.81;;;8.85;100.00
64610;BME280;51019;46.090;6.350;2023-03-19T08:05:25;96674.94;;;8.81;100.00
64610;BME280;51019;46.090;6.350;2023-03-19T08:07:53;96704.13;;;8.86;100.00
64610;BME280;51019;46.090;6.350;2023-03-19T08:10:22;96693.63;;;8.97;100.00
64610;BME280;51019;46.090;6.350;2023-03-19T08:12:49;96691.31;;;9.04;100.00
64610;BME280;51019;46.090;6.350;2023-03-19T08:15:17;96703.25;;;8.97;100.00
64610;BME280;51019;46.090;6.350;2023-03-19T08:17:45;96684.19;;;8.85;100.00
64610;BME280;51019;46.090;6.350;2023-03-19T08:22:42;96702.25;;;9.19;100.00
64610;BME280;51019;46.090;6.350;2023-03-19T08:25:10;96702.22;;;9.09;100.00
64610;BME280;51019;46.090;6.350;2023-03-19T08:27:39;96707.69;;;9.06;100.00
64610;BME280;51019;46.090;6.350;2023-03-19T08:30:09;96701.38;;;9.08;100.00
64610;BME280;51019;46.090;6.350;2023-03-19T08:32:39;96700.56;;;9.08;100.00
64610;BME280;51019;46.090;6.350;2023-03-19T08:35:07;96694.69;;;8.95;100.00
64610;BME280;51019;46.090;6.350;2023-03-19T08:37:35;96696.13;;;9.29;100.00
64610;BME280;51019;46.090;6.350;2023-03-19T08:40:06;96697.91;;;9.59;100.00
64610;BME280;51019;46.090;6.350;2023-03-19T08:42:34;96704.56;;;9.73;100.00
64610;BME280;51019;46.090;6.350;2023-03-19T08:45:06;96703.31;;;9.67;100.00
64610;BME280;51019;46.090;6.350;2023-03-19T08:47:34;96704.75;;;9.81;100.00
64610;BME280;51019;46.090;6.350;2023-03-19T08:50:01;96678.06;;;9.57;100.00
64610;BME280;51019;46.090;6.350;2023-03-19T08:52:29;96711.88;;;9.79;100.00
64610;BME280;51019;46.090;6.350;2023-03-19T08:54:56;96704.19;;;9.87;100.00
64610;BME280;51019;46.090;6.350;2023-03-19T08:57:25;96719.63;;;9.90;100.00
64610;BME280;51019;46.090;6.350;2023-03-19T08:59:52;96713.72;;;9.98;100.00
64610;BME280;51019;46.090;6.350;2023-03-19T09:02:21;96718.59;;;10.12;100.00
64610;BME280;51019;46.090;6.350;2023-03-19T09:04:49;96709.19;;;10.09;100.00
64610;BME280;51019;46.090;6.350;2023-03-19T09:07:17;96702.56;;;10.05;100.00
64610;BME280;51019;46.090;6.350;2023-03-19T09:09:44;96728.13;;;10.23;100.00
64610;BME280;51019;46.090;6.350;2023-03-19T09:12:14;96716.97;;;10.21;100.00
64610;BME280;51019;46.090;6.350;2023-03-19T09:14:43;96720.16;;;10.34;100.00
64610;BME280;51019;46.090;6.350;2023-03-19T09:17:10;96700.66;;;10.17;100.00
64610;BME280;51019;46.090;6.350;2023-03-19T09:19:41;96724.44;;;10.35;100.00
64610;BME280;51019;46.090;6.350;2023-03-19T09:22:09;96719.41;;;10.12;100.00
64610;BME280;51019;46.090;6.350;2023-03-19T09:24:36;96721.81;;;10.25;100.00
64610;BME280;51019;46.090;6.350;2023-03-19T09:27:03;96691.00;;;10.17;100.00
64610;BME280;51019;46.090;6.350;2023-03-19T09:29:31;96721.25;;;10.31;100.00
64610;BME280;51019;46.090;6.350;2023-03-19T09:31:58;96723.59;;;10.34;100.00
64610;BME280;51019;46.090;6.350;2023-03-19T09:34:26;96719.91;;;10.37;100.00
64610;BME280;51019;46.090;6.350;2023-03-19T09:36:55;96718.63;;;10.22;100.00
64610;BME280;51019;46.090;6.350;2023-03-19T09:39:23;96717.78;;;10.21;100.00
64610;BME280;51019;46.090;6.350;2023-03-19T09:42:04;96702.84;;;10.02;100.00
64610;BME280;51019;46.090;6.350;2023-03-19T09:44:36;96717.50;;;10.14;100.00
64610;BME280;51019;46.090;6.350;2023-03-19T09:47:19;96719.09;;;10.06;100.00
64610;BME280;51019;46.090;6.350;2023-03-19T09:49:51;96710.16;;;9.99;100.00
64610;BME280;51019;46.090;6.350;2023-03-19T09:52:40;96721.19;;;10.02;100.00
64610;BME280;51019;46.090;6.350;2023-03-19T09:55:20;96726.13;;;10.05;100.00
64610;BME280;51019;46.090;6.350;2023-03-19T09:57:53;96702.41;;;9.97;100.00
64610;BME280;51019;46.090;6.350;2023-03-19T10:00:23;96727.34;;;9.92;100.00
64610;BME280;51019;46.090;6.350;2023-03-19T10:02:55;96721.28;;;9.81;100.00
64610;BME280;51019;46.090;6.350;2023-03-19T10:05:32;96728.44;;;9.79;100.00
64610;BME280;51019;46.090;6.350;2023-03-19T10:11:25;96721.53;;;9.78;100.00
64610;BME280;51019;46.090;6.350;2023-03-19T10:14:07;96726.53;;;9.91;100.00
64610;BME280;51019;46.090;6.350;2023-03-19T10:16:40;96733.56;;;9.91;100.00
64610;BME280;51019;46.090;6.350;2023-03-19T10:19:14;96720.28;;;9.82;100.00
64610;BME280;51019;46.090;6.350;2023-03-19T10:21:47;96679.63;;;9.69;100.00
64610;BME280;51019;46.090;6.350;2023-03-19T10:24:21;96736.16;;;9.91;100.00
64610;BME280;51019;46.090;6.350;2023-03-19T10:26:57;96725.84;;;9.89;100.00
64610;BME280;51019;46.090;6.350;2023-03-19T10:29:25;96719.91;;;9.97;100.00
64610;BME280;51019;46.090;6.350;2023-03-19T10:32:02;96728.84;;;9.94;100.00
64610;BME280;51019;46.090;6.350;2023-03-19T10:34:34;96733.16;;;10.05;100.00
64610;BME280;51019;46.090;6.350;2023-03-19T10:37:05;96725.19;;;10.16;100.00
64610;BME280;51019;46.090;6.350;2023-03-19T10:39:35;96726.75;;;10.28;100.00
64610;BME280;51019;46.090;6.350;2023-03-19T10:42:12;96732.81;;;10.29;100.00
64610;BME280;51019;46.090;6.350;2023-03-19T10:44:47;96731.03;;;10.19;100.00
64610;BME280;51019;46.090;6.350;2023-03-19T10:47:16;96729.06;;;10.12;100.00
64610;BME280;51019;46.090;6.350;2023-03-19T10:49:49;96721.34;;;10.10;100.00
64610;BME280;51019;46.090;6.350;2023-03-19T10:52:20;96731.53;;;10.13;100.00
64610;BME280;51019;46.090;6.350;2023-03-19T10:54:53;96736.47;;;10.07;100.00
64610;BME280;51019;46.090;6.350;2023-03-19T10:57:25;96733.59;;;10.10;100.00
64610;BME280;51019;46.090;6.350;2023-03-19T10:59:53;96731.16;;;10.18;100.00
64610;BME280;51019;46.090;6.350;2023-03-19T11:02:22;96718.88;;;10.18;100.00
64610;BME280;51019;46.090;6.350;2023-03-19T11:05:05;96743.59;;;10.26;100.00
64610;BME280;51019;46.090;6.350;2023-03-19T11:07:36;96733.53;;;10.31;100.00
64610;BME280;51019;46.090;6.350;2023-03-19T11:10:04;96738.63;;;10.23;100.00
64610;BME280;51019;46.090;6.350;2023-03-19T11:12:40;96718.81;;;9.99;100.00
64610;BME280;51019;46.090;6.350;2023-03-19T11:15:17;96727.06;;;9.95;100.00
64610;BME280;51019;46.090;6.350;2023-03-19T11:17:48;96741.78;;;9.86;100.00
64610;BME280;51019;46.090;6.350;2023-03-19T11:20:21;96718.00;;;9.99;100.00
64610;BME280;51019;46.090;6.350;2023-03-19T11:22:51;96738.56;;;10.13;99.79
64610;BME280;51019;46.090;6.350;2023-03-19T11:25:25;96747.66;;;10.09;100.00
64610;BME280;51019;46.090;6.350;2023-03-19T11:28:01;96746.81;;;10.08;100.00
64610;BME280;51019;46.090;6.350;2023-03-19T11:30:39;96722.41;;;9.98;100.00
64610;BME280;51019;46.090;6.350;2023-03-19T11:33:20;96734.00;;;10.05;100.00
64610;BME280;51019;46.090;6.350;2023-03-19T11:35:57;96708.91;;;10.03;100.00
64610;BME280;51019;46.090;6.350;2023-03-19T11:38:31;96730.59;;;10.14;100.00
64610;BME280;51019;46.090;6.350;2023-03-19T11:41:10;96743.38;;;10.17;100.00
64610;BME280;51019;46.090;6.350;2023-03-19T11:43:49;96732.75;;;10.09;100.00
64610;BME280;51019;46.090;6.350;2023-03-19T11:46:35;96738.72;;;10.11;100.00
64610;BME280;51019;46.090;6.350;2023-03-19T11:49:37;96733.94;;;10.26;99.08
64610;BME280;51019;46.090;6.350;2023-03-19T11:52:13;96737.22;;;10.28;100.00
64610;BME280;51019;46.090;6.350;2023-03-19T11:54:50;96704.66;;;10.11;98.87
64610;BME280;51019;46.090;6.350;2023-03-19T11:57:35;96737.94;;;10.30;99.04
64610;BME280;51019;46.090;6.350;2023-03-19T12:00:23;96730.78;;;10.42;95.82
64610;BME280;51019;46.090;6.350;2023-03-19T12:03:21;96724.56;;;10.43;95.54
64610;BME280;51019;46.090;6.350;2023-03-19T12:05:54;96718.09;;;10.37;97.35
64610;BME280;51019;46.090;6.350;2023-03-19T12:08:29;96733.13;;;10.54;98.91
64610;BME280;51019;46.090;6.350;2023-03-19T12:11:06;96737.66;;;10.33;98.42
64610;BME280;51019;46.090;6.350;2023-03-19T12:13:43;96740.03;;;10.36;99.08
64610;BME280;51019;46.090;6.350;2023-03-19T12:16:22;96721.94;;;10.24;98.85
64610;BME280;51019;46.090;6.350;2023-03-19T12:19:19;96729.94;;;10.32;99.24
64610;BME280;51019;46.090;6.350;2023-03-19T12:21:58;96728.03;;;10.34;97.78
64610;BME280;51019;46.090;6.350;2023-03-19T12:24:39;96727.19;;;10.24;99.60
64610;BME280;51019;46.090;6.350;2023-03-19T12:27:21;96727.44;;;10.21;99.20
64610;BME280;51019;46.090;6.350;2023-03-19T12:29:57;96726.34;;;10.23;99.13
64610;BME280;51019;46.090;6.350;2023-03-19T12:32:51;96732.75;;;10.09;96.91
64610;BME280;51019;46.090;6.350;2023-03-19T12:35:30;96721.59;;;10.07;98.29
64610;BME280;51019;46.090;6.350;2023-03-19T12:38:03;96723.31;;;10.28;98.34
64610;BME280;51019;46.090;6.350;2023-03-19T12:40:38;96720.53;;;10.19;97.76
64610;BME280;51019;46.090;6.350;2023-03-19T12:43:16;96722.44;;;10.17;100.00
64610;BME280;51019;46.090;6.350;2023-03-19T12:45:45;96707.00;;;10.14;99.27
64610;BME280;51019;46.090;6.350;2023-03-19T12:48:25;96713.97;;;10.35;98.63
64610;BME280;51019;46.090;6.350;2023-03-19T12:50:56;96707.19;;;10.42;96.51
64610;BME280;51019;46.090;6.350;2023-03-19T12:53:32;96702.38;;;10.47;97.11
64610;BME280;51019;46.090;6.350;2023-03-19T12:56:08;96699.75;;;10.66;96.69
64610;BME280;51019;46.090;6.350;2023-03-19T12:58:49;96693.00;;;10.54;96.73
64610;BME280;51019;46.090;6.350;2023-03-19T13:01:22;96691.28;;;11.01;95.46
64610;BME280;51019;46.090;6.350;2023-03-19T13:03:58;96692.84;;;11.31;93.26
64610;BME280;51019;46.090;6.350;2023-03-19T13:06:33;96701.66;;;11.49;91.03
64610;BME280;51019;46.090;6.350;2023-03-19T13:09:04;96668.19;;;11.51;89.94
64610;BME280;51019;46.090;6.350;2023-03-19T13:11:42;96689.34;;;11.87;89.13
64610;BME280;51019;46.090;6.350;2023-03-19T13:14:18;96680.56;;;11.69;87.21
64610;BME280;51019;46.090;6.350;2023-03-19T13:16:53;96625.41;;;11.51;84.12
64610;BME280;51019;46.090;6.350;2023-03-19T13:19:29;96602.38;;;12.08;82.37
64610;BME280;51019;46.090;6.350;2023-03-19T13:22:05;96671.97;;;12.57;81.95
64610;BME280;51019;46.090;6.350;2023-03-19T13:24:37;96672.91;;;12.48;81.55